createdAt,value
2017-11-05T00:00:32.911Z,6.31
2017-11-05T00:03:00.516Z,6.29
2017-11-05T00:05:28.074Z,6.27
2017-11-05T00:07:56.028Z,6.24
2017-11-05T00:10:23.600Z,6.25
2017-11-05T00:12:51.149Z,6.27
2017-11-05T00:15:18.716Z,6.26
2017-11-05T00:17:46.251Z,6.27
2017-11-05T00:20:14.323Z,6.28
2017-11-05T00:22:41.876Z,6.27
2017-11-05T00:25:09.460Z,6.22
2017-11-05T00:27:37.012Z,6.16
2017-11-05T00:30:04.552Z,6.12
2017-11-05T00:32:32.230Z,6.08
2017-11-05T00:34:59.919Z,6.03
2017-11-05T00:37:27.853Z,5.98
2017-11-05T00:39:55.418Z,5.95
2017-11-05T00:42:22.972Z,5.91
2017-11-05T00:44:50.541Z,5.91
2017-11-05T00:47:18.102Z,5.93
2017-11-05T00:49:45.687Z,5.96
2017-11-05T00:52:13.240Z,5.95
2017-11-05T00:54:40.824Z,5.86
2017-11-05T00:57:08.365Z,5.80
2017-11-05T00:59:35.917Z,5.79
2017-11-05T01:02:03.483Z,5.77
2017-11-05T01:04:31.045Z,5.73
2017-11-05T01:06:58.724Z,5.70
2017-11-05T01:09:26.275Z,5.64
2017-11-05T01:11:54.183Z,5.66
2017-11-05T01:14:21.745Z,5.70
2017-11-05T01:16:49.302Z,5.74
2017-11-05T01:19:16.860Z,5.77
2017-11-05T01:21:44.418Z,5.80
2017-11-05T01:24:12.059Z,5.81
2017-11-05T01:26:39.602Z,5.82
2017-11-05T01:29:07.518Z,5.82
2017-11-05T01:31:35.087Z,5.82
2017-11-05T01:34:02.653Z,5.79
2017-11-05T01:36:30.262Z,5.71
2017-11-05T01:38:57.809Z,5.60
2017-11-05T01:41:25.390Z,5.52
2017-11-05T01:43:52.928Z,5.45
2017-11-05T01:46:20.843Z,5.39
2017-11-05T01:48:48.402Z,5.35
2017-11-05T01:51:15.959Z,5.34
2017-11-05T01:53:43.521Z,5.40
2017-11-05T01:56:11.065Z,5.45
2017-11-05T01:58:38.952Z,5.47
2017-11-05T02:01:06.507Z,5.45
2017-11-05T02:03:34.067Z,5.48
2017-11-05T02:06:01.670Z,5.51
2017-11-05T02:08:29.215Z,5.54
2017-11-05T02:10:57.061Z,5.56
2017-11-05T02:13:24.614Z,5.52
2017-11-05T02:15:52.479Z,5.51
2017-11-05T02:18:20.024Z,5.52
2017-11-05T02:20:47.581Z,5.49
2017-11-05T02:23:15.145Z,5.42
2017-11-05T02:25:42.671Z,5.34
2017-11-05T02:28:10.271Z,5.29
2017-11-05T02:30:37.798Z,5.27
2017-11-05T02:33:05.580Z,5.24
2017-11-05T02:35:33.156Z,5.22
2017-11-05T02:38:00.703Z,5.17
2017-11-05T02:40:28.269Z,5.14
2017-11-05T02:42:55.835Z,5.12
2017-11-05T02:45:23.701Z,5.10
2017-11-05T02:47:51.252Z,5.06
2017-11-05T02:50:19.010Z,5.04
2017-11-05T02:52:46.561Z,5.01
2017-11-05T02:55:14.092Z,4.99
2017-11-05T02:57:41.665Z,4.98
2017-11-05T03:00:09.222Z,4.98
2017-11-05T03:02:37.143Z,4.99
2017-11-05T03:05:04.684Z,4.99
2017-11-05T03:07:32.247Z,5.01
2017-11-05T03:09:59.859Z,5.01
2017-11-05T03:12:27.399Z,5.01
2017-11-05T03:14:55.243Z,5.02
2017-11-05T03:17:22.800Z,5.05
2017-11-05T03:19:50.332Z,5.09
2017-11-05T03:22:17.894Z,5.11
2017-11-05T03:24:45.445Z,5.16
2017-11-05T03:27:13.336Z,5.15
2017-11-05T03:29:40.876Z,5.07
2017-11-05T03:32:08.424Z,5.01
2017-11-05T03:34:35.991Z,4.96
2017-11-05T03:37:03.535Z,4.98
2017-11-05T03:39:31.449Z,5.01
2017-11-05T03:41:58.998Z,5.01
2017-11-05T03:44:26.599Z,5.02
2017-11-05T03:46:54.281Z,4.97
2017-11-05T03:49:21.839Z,4.89
2017-11-05T03:51:49.402Z,4.84
2017-11-05T03:54:16.944Z,4.80
2017-11-05T03:56:45.019Z,4.78
2017-11-05T03:59:12.556Z,4.76
2017-11-05T04:01:40.113Z,4.75
2017-11-05T04:04:07.667Z,4.72
2017-11-05T04:06:35.196Z,4.68
2017-11-05T04:09:03.099Z,4.66
2017-11-05T04:11:30.701Z,4.64
2017-11-05T04:13:58.239Z,4.66
2017-11-05T04:16:25.821Z,4.63
2017-11-05T04:18:53.353Z,4.62
2017-11-05T04:21:21.062Z,4.60
2017-11-05T04:23:49.303Z,4.60
2017-11-05T04:26:16.839Z,4.62
2017-11-05T04:28:44.391Z,4.62
2017-11-05T04:31:11.922Z,4.61
2017-11-05T04:33:39.761Z,4.61
2017-11-05T04:36:07.301Z,4.63
2017-11-05T04:38:34.823Z,4.65
2017-11-05T04:41:02.556Z,4.67
2017-11-05T04:43:30.096Z,4.69
2017-11-05T04:45:57.656Z,4.71
2017-11-05T04:48:25.209Z,4.72
2017-11-05T04:50:53.163Z,4.74
2017-11-05T04:53:20.700Z,4.76
2017-11-05T04:55:48.251Z,4.75
2017-11-05T04:58:16.060Z,4.76
2017-11-05T05:00:43.754Z,4.76
2017-11-05T05:03:11.322Z,4.77
2017-11-05T05:05:38.874Z,4.77
2017-11-05T05:08:07.204Z,4.79
2017-11-05T05:10:34.782Z,4.81
2017-11-05T05:13:02.380Z,4.83
2017-11-05T05:15:29.950Z,4.84
2017-11-05T05:17:57.505Z,4.83
2017-11-05T05:20:25.399Z,4.83
2017-11-05T05:22:52.936Z,4.83
2017-11-05T05:25:20.477Z,4.83
2017-11-05T05:27:48.041Z,4.84
2017-11-05T05:30:15.603Z,4.88
2017-11-05T05:32:43.566Z,4.93
2017-11-05T05:35:11.096Z,4.97
2017-11-05T05:37:38.645Z,4.98
2017-11-05T05:40:06.208Z,4.95
2017-11-05T05:42:33.766Z,4.95
2017-11-05T05:45:01.367Z,4.96
2017-11-05T05:47:28.888Z,5.00
2017-11-05T05:49:56.455Z,5.04
2017-11-05T05:52:23.992Z,5.05
2017-11-05T05:54:51.633Z,5.05
2017-11-05T05:57:19.201Z,5.07
2017-11-05T05:59:46.746Z,5.11
2017-11-05T06:02:14.467Z,5.10
2017-11-05T06:04:42.007Z,5.12
2017-11-05T06:07:09.863Z,5.16
2017-11-05T06:09:37.442Z,5.20
2017-11-05T06:12:04.992Z,5.24
2017-11-05T06:14:32.865Z,5.24
2017-11-05T06:17:00.396Z,5.25
2017-11-05T06:19:27.967Z,5.28
2017-11-05T06:21:55.530Z,5.29
2017-11-05T06:24:23.093Z,5.31
2017-11-05T06:26:50.793Z,5.34
2017-11-05T06:29:18.346Z,5.36
2017-11-05T06:31:46.280Z,5.41
2017-11-05T06:34:13.852Z,5.46
2017-11-05T06:36:41.396Z,5.47
2017-11-05T06:39:08.993Z,5.49
2017-11-05T06:41:36.526Z,5.50
2017-11-05T06:44:04.816Z,5.49
2017-11-05T06:46:32.427Z,5.48
2017-11-05T06:48:59.968Z,5.48
2017-11-05T06:51:27.568Z,5.49
2017-11-05T06:53:55.110Z,5.51
2017-11-05T06:56:22.811Z,5.52
2017-11-05T06:58:50.364Z,5.51
2017-11-05T07:01:17.960Z,5.49
2017-11-05T07:03:45.622Z,5.46
2017-11-05T07:06:13.176Z,5.50
2017-11-05T07:08:40.728Z,5.56
2017-11-05T07:11:08.273Z,5.60
2017-11-05T07:13:35.838Z,5.67
2017-11-05T07:16:03.397Z,5.74
2017-11-05T07:18:30.934Z,5.81
2017-11-05T07:20:58.499Z,5.87
2017-11-05T07:23:26.095Z,5.95
2017-11-05T07:25:53.683Z,6.02
2017-11-05T07:28:21.214Z,6.10
2017-11-05T07:30:48.763Z,6.16
2017-11-05T07:33:16.518Z,6.21
2017-11-05T07:35:44.084Z,6.27
2017-11-05T07:38:11.664Z,6.32
2017-11-05T07:40:39.235Z,6.30
2017-11-05T07:43:06.798Z,6.30
2017-11-05T07:45:34.502Z,6.31
2017-11-05T07:48:02.465Z,6.31
2017-11-05T07:50:30.315Z,6.32
2017-11-05T07:52:57.864Z,6.37
2017-11-05T07:55:25.489Z,6.44
2017-11-05T07:57:53.137Z,6.47
2017-11-05T08:00:20.721Z,6.57
2017-11-05T08:02:48.318Z,6.67
2017-11-05T08:05:15.897Z,6.73
2017-11-05T08:07:43.470Z,6.78
2017-11-05T08:10:11.057Z,6.82
2017-11-05T08:12:38.618Z,6.89
2017-11-05T08:15:06.194Z,6.99
2017-11-05T08:17:33.738Z,7.07
2017-11-05T08:20:01.322Z,7.12
2017-11-05T08:22:29.393Z,7.23
2017-11-05T08:24:56.958Z,7.32
2017-11-05T08:27:24.524Z,7.37
2017-11-05T08:29:52.156Z,7.47
2017-11-05T08:32:19.817Z,7.55
2017-11-05T08:34:47.368Z,7.61
2017-11-05T08:37:15.035Z,7.70
2017-11-05T08:39:43.747Z,7.74
2017-11-05T08:42:11.343Z,7.79
2017-11-05T08:44:39.100Z,7.82
2017-11-05T08:47:06.660Z,7.85
2017-11-05T08:49:34.242Z,7.91
2017-11-05T08:52:01.795Z,7.96
2017-11-05T08:54:29.419Z,8.03
2017-11-05T08:56:56.994Z,8.10
2017-11-05T08:59:24.587Z,8.17
2017-11-05T09:01:52.220Z,8.21
2017-11-05T09:04:19.917Z,8.27
2017-11-05T09:06:47.498Z,8.32
2017-11-05T09:09:15.040Z,8.36
2017-11-05T09:11:42.671Z,8.42
2017-11-05T09:14:10.235Z,8.49
2017-11-05T09:16:37.983Z,8.58
2017-11-05T09:19:05.565Z,8.65
2017-11-05T09:21:33.115Z,8.71
2017-11-05T09:24:00.867Z,8.76
2017-11-05T09:26:28.419Z,8.81
2017-11-05T09:28:56.020Z,8.83
2017-11-05T09:31:23.572Z,8.88
2017-11-05T09:33:51.131Z,8.94
2017-11-05T09:36:18.696Z,9.00
2017-11-05T09:38:46.266Z,9.05
2017-11-05T09:41:14.929Z,9.10
2017-11-05T09:43:42.536Z,9.13
2017-11-05T09:46:10.130Z,9.21
2017-11-05T09:48:37.704Z,9.27
2017-11-05T09:51:05.455Z,9.32
2017-11-05T09:53:33.033Z,9.39
2017-11-05T09:56:00.580Z,9.50
2017-11-05T09:58:28.196Z,9.56
2017-11-05T10:00:55.780Z,9.65
2017-11-05T10:03:23.331Z,9.69
2017-11-05T10:05:50.908Z,9.76
2017-11-05T10:08:18.463Z,9.81
2017-11-05T10:10:46.047Z,9.87
2017-11-05T10:13:13.684Z,9.91
2017-11-05T10:15:41.300Z,9.88
2017-11-05T10:18:08.865Z,9.92
2017-11-05T10:20:36.457Z,9.93
2017-11-05T10:23:04.039Z,10.00
2017-11-05T10:25:32.227Z,10.05
2017-11-05T10:27:59.816Z,10.10
2017-11-05T10:30:27.391Z,10.15
2017-11-05T10:32:54.981Z,10.21
2017-11-05T10:35:22.563Z,10.25
2017-11-05T10:37:50.127Z,10.26
2017-11-05T10:40:18.019Z,10.28
2017-11-05T10:42:45.671Z,10.28
2017-11-05T10:45:13.254Z,10.31
2017-11-05T10:47:40.867Z,10.37
2017-11-05T10:50:08.436Z,10.42
2017-11-05T10:52:36.040Z,10.44
2017-11-05T10:55:03.622Z,10.45
2017-11-05T10:57:31.204Z,10.50
2017-11-05T10:59:58.772Z,10.54
2017-11-05T11:02:26.353Z,10.56
2017-11-05T11:04:53.932Z,10.57
2017-11-05T11:07:21.500Z,10.58
2017-11-05T11:09:49.109Z,10.56
2017-11-05T11:12:16.690Z,10.59
2017-11-05T11:14:44.237Z,10.59
2017-11-05T11:17:11.852Z,10.63
2017-11-05T11:19:39.441Z,10.68
2017-11-05T11:22:07.040Z,10.71
2017-11-05T11:24:34.731Z,10.73
2017-11-05T11:27:02.383Z,10.78
2017-11-05T11:29:30.211Z,10.75
2017-11-05T11:31:57.900Z,10.77
2017-11-05T11:34:25.508Z,10.77
2017-11-05T11:36:53.087Z,10.67
2017-11-05T11:39:20.748Z,10.69
2017-11-05T11:41:48.363Z,10.73
2017-11-05T11:44:15.932Z,10.70
2017-11-05T11:46:43.521Z,10.70
2017-11-05T11:49:11.261Z,10.73
2017-11-05T11:51:38.853Z,10.73
2017-11-05T11:54:06.585Z,10.73
2017-11-05T11:56:34.244Z,10.70
2017-11-05T11:59:01.798Z,10.69
2017-11-05T12:01:29.357Z,10.66
2017-11-05T12:03:56.949Z,10.66
2017-11-05T12:06:24.548Z,10.67
2017-11-05T12:08:52.136Z,10.69
2017-11-05T12:11:19.832Z,10.69
2017-11-05T12:13:47.530Z,10.69
2017-11-05T12:16:15.123Z,10.70
2017-11-05T12:18:42.710Z,10.69
2017-11-05T12:21:10.321Z,10.70
2017-11-05T12:23:37.946Z,10.68
2017-11-05T12:26:05.525Z,10.63
2017-11-05T12:28:33.097Z,10.59
2017-11-05T12:31:00.892Z,10.57
2017-11-05T12:33:28.458Z,10.53
2017-11-05T12:35:56.010Z,10.50
2017-11-05T12:38:23.626Z,10.48
2017-11-05T12:40:51.197Z,10.45
2017-11-05T12:43:18.796Z,10.41
2017-11-05T12:45:46.525Z,10.40
2017-11-05T12:48:14.119Z,10.40
2017-11-05T12:50:41.719Z,10.40
2017-11-05T12:53:09.286Z,10.43
2017-11-05T12:55:37.000Z,10.47
2017-11-05T12:58:04.534Z,10.50
2017-11-05T13:00:32.139Z,10.52
2017-11-05T13:02:59.719Z,10.51
2017-11-05T13:05:27.281Z,10.50
2017-11-05T13:07:54.866Z,10.49
2017-11-05T13:10:22.429Z,10.47
2017-11-05T13:12:50.162Z,10.45
2017-11-05T13:15:17.735Z,10.44
2017-11-05T13:17:45.310Z,10.41
2017-11-05T13:20:12.941Z,10.38
2017-11-05T13:22:40.531Z,10.36
2017-11-05T13:25:08.442Z,10.35
2017-11-05T13:27:36.023Z,10.35
2017-11-05T13:30:03.686Z,10.33
2017-11-05T13:32:31.273Z,10.31
2017-11-05T13:34:58.851Z,10.29
2017-11-05T13:37:26.457Z,10.28
2017-11-05T13:39:54.178Z,10.27
2017-11-05T13:42:22.154Z,10.25
2017-11-05T13:44:49.711Z,10.23
2017-11-05T13:47:17.273Z,10.21
2017-11-05T13:49:44.882Z,10.20
2017-11-05T13:52:12.562Z,10.20
2017-11-05T13:54:40.619Z,10.15
2017-11-05T13:57:08.186Z,10.12
2017-11-05T13:59:35.763Z,10.09
2017-11-05T14:02:03.438Z,10.04
2017-11-05T14:04:31.033Z,10.01
2017-11-05T14:06:58.790Z,9.99
2017-11-05T14:09:26.374Z,9.97
2017-11-05T14:11:54.127Z,9.93
2017-11-05T14:14:21.708Z,9.90
2017-11-05T14:16:49.262Z,9.88
2017-11-05T14:19:17.212Z,9.87
2017-11-05T14:21:44.787Z,9.87
2017-11-05T14:24:12.359Z,9.88
2017-11-05T14:26:39.967Z,9.87
2017-11-05T14:29:07.595Z,9.89
2017-11-05T14:31:35.856Z,9.91
2017-11-05T14:34:03.779Z,9.90
2017-11-05T14:36:31.634Z,9.86
2017-11-05T14:38:59.250Z,9.84
2017-11-05T14:41:26.834Z,9.73
2017-11-05T14:43:54.454Z,9.70
2017-11-05T14:46:22.034Z,9.60
2017-11-05T14:48:49.668Z,9.55
2017-11-05T14:51:17.237Z,9.50
2017-11-05T14:53:44.834Z,9.43
2017-11-05T14:56:12.442Z,9.39
2017-11-05T14:58:39.998Z,9.38
2017-11-05T15:01:07.625Z,9.36
2017-11-05T15:03:35.240Z,9.34
2017-11-05T15:06:02.939Z,9.33
2017-11-05T15:08:30.523Z,9.29
2017-11-05T15:10:58.127Z,9.30
2017-11-05T15:13:25.797Z,9.29
2017-11-05T15:15:53.399Z,9.27
2017-11-05T15:18:21.016Z,9.23
2017-11-05T15:20:48.751Z,9.16
2017-11-05T15:23:16.352Z,9.08
2017-11-05T15:25:43.954Z,9.04
2017-11-05T15:28:11.575Z,8.98
2017-11-05T15:30:39.230Z,8.95
2017-11-05T15:33:06.807Z,8.91
2017-11-05T15:35:34.438Z,8.89
2017-11-05T15:38:02.059Z,8.83
2017-11-05T15:40:29.680Z,8.79
2017-11-05T15:42:57.390Z,8.74
2017-11-05T15:45:25.064Z,8.70
2017-11-05T15:47:52.791Z,8.69
2017-11-05T15:50:20.430Z,8.66
2017-11-05T15:52:48.372Z,8.62
2017-11-05T15:55:16.063Z,8.60
2017-11-05T15:57:43.704Z,8.54
2017-11-05T16:00:11.306Z,8.50
2017-11-05T16:02:38.978Z,8.44
2017-11-05T16:05:06.686Z,8.42
2017-11-05T16:07:34.418Z,8.37
2017-11-05T16:10:02.093Z,8.37
2017-11-05T16:12:30.299Z,8.33
2017-11-05T16:14:58.180Z,8.30
2017-11-05T16:17:25.882Z,8.29
2017-11-05T16:19:53.508Z,8.29
2017-11-05T16:22:21.668Z,8.27
2017-11-05T16:24:49.360Z,8.22
2017-11-05T16:27:17.004Z,8.23
2017-11-05T16:29:44.640Z,8.21
2017-11-05T16:32:12.374Z,8.15
2017-11-05T16:34:40.267Z,8.11
2017-11-05T16:37:08.413Z,8.12
2017-11-05T16:39:36.533Z,8.07
2017-11-05T16:42:04.380Z,8.08
2017-11-05T16:44:32.111Z,8.05
2017-11-05T16:46:59.860Z,8.03
2017-11-05T16:49:27.585Z,8.02
2017-11-05T16:51:55.761Z,7.99
2017-11-05T16:54:23.440Z,7.97
2017-11-05T16:56:51.303Z,7.97
2017-11-05T16:59:19.065Z,7.94
2017-11-05T17:01:46.790Z,7.94
2017-11-05T17:04:14.503Z,7.93
2017-11-05T17:06:42.406Z,7.89
2017-11-05T17:09:10.206Z,7.91
2017-11-05T17:11:37.866Z,7.89
2017-11-05T17:14:05.646Z,7.88
2017-11-05T17:16:33.513Z,7.88
2017-11-05T17:19:01.187Z,7.87
2017-11-05T17:21:28.927Z,7.88
2017-11-05T17:23:56.664Z,7.86
2017-11-05T17:26:24.365Z,7.87
2017-11-05T17:28:52.132Z,7.88
2017-11-05T17:31:20.007Z,7.89
2017-11-05T17:33:47.870Z,7.89
2017-11-05T17:36:15.782Z,7.88
2017-11-05T17:38:43.597Z,7.86
2017-11-05T17:41:11.466Z,7.87
2017-11-05T17:43:39.190Z,7.84
2017-11-05T17:46:06.822Z,7.82
2017-11-05T17:48:34.623Z,7.81
2017-11-05T17:51:02.432Z,7.83
2017-11-05T17:53:30.124Z,7.80
2017-11-05T17:55:57.913Z,7.80
2017-11-05T17:58:26.809Z,7.79
2017-11-05T18:00:55.654Z,7.78
2017-11-05T18:03:23.396Z,7.75
2017-11-05T18:05:51.078Z,7.75
2017-11-05T18:08:18.918Z,7.75
2017-11-05T18:10:46.767Z,7.75
2017-11-05T18:13:14.502Z,7.74
2017-11-05T18:15:42.425Z,7.72
2017-11-05T18:18:10.156Z,7.71
2017-11-05T18:20:38.167Z,7.73
2017-11-05T18:23:06.021Z,7.70
2017-11-05T18:25:33.821Z,7.71
2017-11-05T18:28:01.646Z,7.69
2017-11-05T18:30:29.427Z,7.68
2017-11-05T18:32:57.140Z,7.67
2017-11-05T18:35:24.952Z,7.64
2017-11-05T18:37:52.734Z,7.63
2017-11-05T18:40:20.422Z,7.65
2017-11-05T18:42:48.816Z,7.65
2017-11-05T18:45:16.441Z,7.62
2017-11-05T18:47:44.093Z,7.63
2017-11-05T18:50:12.060Z,7.62
2017-11-05T18:52:39.816Z,7.62
2017-11-05T18:55:07.522Z,7.61
2017-11-05T18:57:35.222Z,7.59
2017-11-05T19:00:03.137Z,7.59
2017-11-05T19:02:30.866Z,7.58
2017-11-05T19:04:58.816Z,7.54
2017-11-05T19:07:26.555Z,7.52
2017-11-05T19:09:54.294Z,7.54
2017-11-05T19:12:22.145Z,7.55
2017-11-05T19:14:51.180Z,7.56
2017-11-05T19:17:19.606Z,7.51
2017-11-05T19:19:47.354Z,7.49
2017-11-05T19:22:15.029Z,7.50
2017-11-05T19:24:42.788Z,7.51
2017-11-05T19:27:10.494Z,7.52
2017-11-05T19:29:38.632Z,7.49
2017-11-05T19:32:06.415Z,7.47
2017-11-05T19:34:34.172Z,7.47
2017-11-05T19:37:02.043Z,7.44
2017-11-05T19:39:29.843Z,7.46
2017-11-05T19:41:57.595Z,7.45
2017-11-05T19:44:25.937Z,7.46
2017-11-05T19:46:53.662Z,7.47
2017-11-05T19:49:21.473Z,7.46
2017-11-05T19:51:50.372Z,7.42
2017-11-05T19:54:18.212Z,7.42
2017-11-05T19:56:45.924Z,7.38
2017-11-05T19:59:13.693Z,7.40
2017-11-05T20:01:41.497Z,7.40
2017-11-05T20:04:11.053Z,7.40
2017-11-05T20:06:38.900Z,7.42
2017-11-05T20:09:06.872Z,7.39
2017-11-05T20:11:35.465Z,7.41
2017-11-05T20:14:03.430Z,7.40
2017-11-05T20:16:31.401Z,7.38
2017-11-05T20:18:59.270Z,7.36
2017-11-05T20:21:27.339Z,7.33
2017-11-05T20:23:55.372Z,7.32
2017-11-05T20:26:23.184Z,7.31
2017-11-05T20:28:52.252Z,7.30
2017-11-05T20:31:20.241Z,7.29
2017-11-05T20:33:48.411Z,7.30
2017-11-05T20:36:17.412Z,7.29
2017-11-05T20:38:46.291Z,7.26
2017-11-05T20:41:14.147Z,7.23
2017-11-05T20:43:42.880Z,7.16
2017-11-05T20:46:10.637Z,7.13
2017-11-05T20:48:38.402Z,7.14
2017-11-05T20:51:06.519Z,7.10
2017-11-05T20:53:34.537Z,7.09
2017-11-05T20:56:02.384Z,7.08
2017-11-05T20:58:30.322Z,7.08
2017-11-05T21:00:58.224Z,7.07
2017-11-05T21:03:26.108Z,7.05
2017-11-05T21:05:53.932Z,7.04
2017-11-05T21:08:21.798Z,7.01
2017-11-05T21:10:49.516Z,6.98
2017-11-05T21:13:17.278Z,6.95
2017-11-05T21:15:45.452Z,6.88
2017-11-05T21:18:13.388Z,6.81
2017-11-05T21:20:41.090Z,6.76
2017-11-05T21:23:08.849Z,6.73
2017-11-05T21:25:36.583Z,6.69
2017-11-05T21:28:04.246Z,6.70
2017-11-05T21:30:32.886Z,6.70
2017-11-05T21:33:00.662Z,6.72
2017-11-05T21:35:28.321Z,6.71
2017-11-05T21:37:55.928Z,6.66
2017-11-05T21:40:23.543Z,6.65
2017-11-05T21:42:51.158Z,6.62
2017-11-05T21:45:18.773Z,6.59
2017-11-05T21:47:46.375Z,6.60
2017-11-05T21:50:13.977Z,6.62
2017-11-05T21:52:41.535Z,6.60
2017-11-05T21:55:09.103Z,6.61
2017-11-05T21:57:36.701Z,6.60
2017-11-05T22:00:04.241Z,6.59
2017-11-05T22:02:31.953Z,6.62
2017-11-05T22:04:59.549Z,6.61
2017-11-05T22:07:27.102Z,6.62
2017-11-05T22:09:54.689Z,6.61
2017-11-05T22:12:22.257Z,6.62
2017-11-05T22:14:49.844Z,6.62
2017-11-05T22:17:17.542Z,6.62
2017-11-05T22:19:45.456Z,6.61
2017-11-05T22:22:13.009Z,6.60
2017-11-05T22:24:40.577Z,6.59
2017-11-05T22:27:08.181Z,6.56
2017-11-05T22:29:35.733Z,6.59
2017-11-05T22:32:04.019Z,6.61
2017-11-05T22:34:31.694Z,6.59
2017-11-05T22:36:59.231Z,6.60
2017-11-05T22:39:26.798Z,6.61
2017-11-05T22:41:54.360Z,6.62
2017-11-05T22:44:21.921Z,6.62
2017-11-05T22:46:49.566Z,6.63
2017-11-05T22:49:17.123Z,6.62
2017-11-05T22:51:44.745Z,6.66
2017-11-05T22:54:12.290Z,6.66
2017-11-05T22:56:39.897Z,6.65
2017-11-05T22:59:07.447Z,6.65
2017-11-05T23:01:34.997Z,6.65
2017-11-05T23:04:02.568Z,6.67
2017-11-05T23:06:30.127Z,6.66
2017-11-05T23:08:57.698Z,6.68
2017-11-05T23:11:25.258Z,6.70
2017-11-05T23:13:52.834Z,6.70
2017-11-05T23:16:20.383Z,6.70
2017-11-05T23:18:47.940Z,6.71
2017-11-05T23:21:15.523Z,6.73
2017-11-05T23:23:43.084Z,6.75
2017-11-05T23:26:10.661Z,6.76
2017-11-05T23:28:38.216Z,6.77
2017-11-05T23:31:05.815Z,6.76
2017-11-05T23:33:33.364Z,6.77
2017-11-05T23:36:01.304Z,6.77
2017-11-05T23:38:28.886Z,6.74
2017-11-05T23:40:56.466Z,6.72
2017-11-05T23:43:24.054Z,6.73
2017-11-05T23:45:51.628Z,6.72
2017-11-05T23:48:19.209Z,6.67
2017-11-05T23:50:46.852Z,6.66
2017-11-05T23:53:14.407Z,6.69
2017-11-05T23:55:41.967Z,6.71
2017-11-05T23:58:09.521Z,6.66
